Time;durP1;ratioP1;P1;durP2;ratioP2;P2;SDS_P1;SDS_P2;PMS_P1;PMS_P2;Temp;Humidity;BMP_temperature;BMP_pressure;BME280_temperature;BME280_humidity;BME280_pressure;Samples;Min_cycle;Max_cycle;Signal;HPM_P1;HPM_P2
2021/04/24 00:00:51;;;;;;;32.97;15.23;;;;;;;6.51;63.65;102730.97;5107448;27;20030;-61
2021/04/24 00:03:17;;;;;;;28.73;10.85;;;;;;;6.50;63.53;102731.84;5104562;27;20024;-62
2021/04/24 00:05:44;;;;;;;33.72;15.23;;;;;;;6.47;63.33;102729.94;5106100;28;20466;-62
2021/04/24 00:08:11;;;;;;;40.00;23.00;;;;;;;6.42;63.43;102732.34;5105548;28;20023;-63
2021/04/24 00:10:41;;;;;;;38.38;19.20;;;;;;;6.36;63.89;102737.25;5105341;28;20509;-62
2021/04/24 00:13:08;;;;;;;43.40;24.60;;;;;;;6.20;63.99;102737.28;5105751;28;20036;-63
2021/04/24 00:15:35;;;;;;;35.20;16.95;;;;;;;6.10;64.36;102738.53;5104888;28;20119;-63
2021/04/24 00:18:00;;;;;;;48.65;28.20;;;;;;;6.03;64.51;102733.75;5106691;28;20046;-62
2021/04/24 00:20:26;;;;;;;29.33;11.13;;;;;;;5.97;64.97;102729.13;5103765;28;20024;-62
2021/04/24 00:22:52;;;;;;;31.77;10.80;;;;;;;5.87;64.97;102730.31;5107378;27;20106;-62
2021/04/24 00:25:19;;;;;;;28.70;11.05;;;;;;;5.68;65.61;102735.34;5104101;28;20031;-63
2021/04/24 00:27:45;;;;;;;33.95;17.65;;;;;;;5.55;66.37;102729.47;5105864;28;20032;-63
2021/04/24 00:30:12;;;;;;;33.42;16.33;;;;;;;5.61;65.86;102741.09;5104916;28;20393;-63
2021/04/24 00:32:39;;;;;;;32.58;16.35;;;;;;;5.56;66.09;102732.97;5104851;28;20062;-62
2021/04/24 00:35:06;;;;;;;32.65;15.02;;;;;;;5.49;66.22;102734.38;5105621;28;20031;-64
2021/04/24 00:37:31;;;;;;;27.38;10.57;;;;;;;5.52;67.11;102729.28;5104185;28;20031;-62
2021/04/24 00:39:56;;;;;;;46.78;31.42;;;;;;;5.40;66.99;102734.75;5106570;28;20028;-61
2021/04/24 00:42:22;;;;;;;30.17;11.48;;;;;;;5.34;67.75;102733.50;5103167;28;20024;-63
2021/04/24 00:44:53;;;;;;;29.67;13.63;;;;;;;5.27;67.88;102736.59;5106297;28;20336;-62
2021/04/24 00:47:20;;;;;;;27.52;10.63;;;;;;;5.28;67.99;102738.41;5103557;28;20486;-62
2021/04/24 00:49:47;;;;;;;28.75;11.52;;;;;;;5.29;68.43;102735.00;5105669;28;20032;-62
2021/04/24 00:52:12;;;;;;;29.27;12.15;;;;;;;5.28;67.99;102727.94;5104461;28;20023;-63
2021/04/24 00:54:37;;;;;;;30.20;11.68;;;;;;;5.18;67.62;102734.38;5104455;28;20367;-62
2021/04/24 00:57:03;;;;;;;30.13;11.30;;;;;;;5.14;67.67;102735.00;5105795;28;20031;-63
2021/04/24 00:59:29;;;;;;;28.85;10.93;;;;;;;4.92;68.64;102739.00;5103355;28;20450;-62
2021/04/24 01:01:55;;;;;;;29.77;11.13;;;;;;;4.91;68.83;102736.31;5106211;28;20127;-62
2021/04/24 01:04:21;;;;;;;29.10;11.07;;;;;;;4.80;69.05;102739.22;5101715;28;20429;-63
2021/04/24 01:06:46;;;;;;;28.77;11.43;;;;;;;4.67;69.12;102736.69;5105970;28;20099;-62
2021/04/24 01:09:11;;;;;;;28.08;10.48;;;;;;;4.63;69.06;102734.69;5103797;28;20042;-63
2021/04/24 01:11:37;;;;;;;28.52;11.13;;;;;;;4.64;69.52;102732.16;5104048;28;20375;-62
2021/04/24 01:14:02;;;;;;;29.25;10.60;;;;;;;4.68;69.08;102728.03;5105419;28;20061;-62
2021/04/24 01:16:28;;;;;;;27.55;11.18;;;;;;;4.71;69.09;102728.19;5102595;28;20028;-62
2021/04/24 01:18:53;;;;;;;28.42;10.60;;;;;;;4.73;68.96;102726.56;5106366;28;20134;-62
2021/04/24 01:21:22;;;;;;;28.73;10.63;;;;;;;4.76;68.14;102721.53;5101338;28;20058;-61
2021/04/24 01:23:48;;;;;;;28.92;10.70;;;;;;;4.79;68.13;102720.78;5105585;28;20027;-62
2021/04/24 01:26:13;;;;;;;28.98;10.10;;;;;;;4.67;68.09;102713.13;5102334;28;20096;-61
2021/04/24 01:28:39;;;;;;;27.73;10.80;;;;;;;4.61;68.38;102731.09;5103722;28;20458;-61
2021/04/24 01:31:04;;;;;;;28.13;10.30;;;;;;;4.59;68.39;102711.75;5104604;28;20027;-62
2021/04/24 01:33:29;;;;;;;30.20;11.90;;;;;;;4.59;68.25;102717.00;5102476;28;20525;-61
2021/04/24 01:35:55;;;;;;;30.98;12.15;;;;;;;4.52;68.23;102716.63;5105579;28;20107;-61
2021/04/24 01:38:20;;;;;;;30.35;10.93;;;;;;;4.62;68.21;102711.97;5102216;28;20028;-61
2021/04/24 01:40:46;;;;;;;31.70;13.25;;;;;;;4.59;67.87;102714.38;5104696;28;20032;-61
2021/04/24 01:43:12;;;;;;;30.83;12.88;;;;;;;4.47;68.15;102705.00;5103298;28;20030;-61
2021/04/24 01:45:38;;;;;;;28.08;10.85;;;;;;;4.45;68.19;102713.56;5103327;28;20107;-61
2021/04/24 01:48:06;;;;;;;30.67;12.55;;;;;;;4.35;68.42;102706.88;5104536;28;20029;-62
2021/04/24 01:50:41;;;;;;;28.98;11.38;;;;;;;4.35;68.16;102712.13;5102587;28;20027;-62
2021/04/24 01:53:09;;;;;;;29.35;12.00;;;;;;;4.38;68.30;102711.41;5103888;28;20019;-62
2021/04/24 01:55:37;;;;;;;28.92;12.90;;;;;;;4.38;68.25;102706.16;5102873;28;20069;-61
2021/04/24 01:58:06;;;;;;;29.30;11.48;;;;;;;4.30;68.38;102709.22;5104618;28;20020;-61
2021/04/24 02:00:47;;;;;;;34.65;19.00;;;;;;;4.32;67.95;102715.44;5102272;28;20028;-61
2021/04/24 02:03:14;;;;;;;28.50;12.10;;;;;;;4.25;68.46;102713.31;5102664;28;20055;-62
2021/04/24 02:05:42;;;;;;;29.95;13.10;;;;;;;4.27;68.84;102708.16;5103638;28;20111;-62
2021/04/24 02:08:11;;;;;;;28.75;11.95;;;;;;;4.23;68.63;102717.53;5103666;28;20024;-63
2021/04/24 02:10:39;;;;;;;27.30;11.25;;;;;;;4.19;68.50;102716.44;5102812;28;20531;-62
2021/04/24 02:13:15;;;;;;;28.40;11.07;;;;;;;4.10;68.50;102715.88;5104145;28;20024;-62
2021/04/24 02:15:41;;;;;;;30.15;11.85;;;;;;;4.06;68.88;102706.03;5103181;28;20032;-62
2021/04/24 02:18:07;;;;;;;29.65;11.48;;;;;;;4.07;69.13;102713.06;5103728;28;20034;-62
2021/04/24 02:20:33;;;;;;;29.20;11.90;;;;;;;4.05;69.35;102711.16;5102154;28;20031;-62
2021/04/24 02:22:59;;;;;;;31.33;12.85;;;;;;;3.98;69.19;102716.03;5104728;28;20028;-62
2021/04/24 02:25:25;;;;;;;29.05;10.73;;;;;;;3.99;69.27;102707.38;5101333;28;20110;-63
2021/04/24 02:27:51;;;;;;;29.38;11.88;;;;;;;3.98;69.53;102709.91;5104341;28;20054;-63
2021/04/24 02:30:19;;;;;;;28.88;11.00;;;;;;;3.93;69.49;102711.31;5102016;28;20480;-62
2021/04/24 02:32:45;;;;;;;29.33;11.10;;;;;;;3.88;69.70;102710.16;5103585;28;20023;-62
2021/04/24 02:35:14;;;;;;;27.85;10.75;;;;;;;3.83;69.75;102722.97;5103160;28;20035;-65
2021/04/24 02:37:39;;;;;;;29.80;11.60;;;;;;;3.77;70.63;102715.63;5103254;28;20120;-62
2021/04/24 02:40:10;;;;;;;29.10;10.70;;;;;;;3.73;70.62;102718.88;5103592;28;20019;-62
2021/04/24 02:42:35;;;;;;;29.15;11.30;;;;;;;3.75;70.57;102717.25;5102040;28;20024;-63
2021/04/24 02:45:05;;;;;;;27.65;11.07;;;;;;;3.77;70.52;102720.88;5104200;28;20382;-62
2021/04/24 02:47:35;;;;;;;30.00;11.00;;;;;;;3.77;70.37;102714.72;5101651;28;20028;-61
2021/04/24 02:50:01;;;;;;;28.58;11.23;;;;;;;3.77;70.47;102718.25;5104114;28;20426;-61
2021/04/24 02:52:27;;;;;;;30.98;12.10;;;;;;;3.70;70.18;102718.69;5101559;28;20059;-61
2021/04/24 02:54:53;;;;;;;29.13;10.63;;;;;;;3.65;70.59;102718.38;5104703;28;20031;-61
2021/04/24 02:57:19;;;;;;;28.10;11.10;;;;;;;3.57;70.68;102717.00;5101622;28;20028;-61
2021/04/24 02:59:44;;;;;;;32.42;12.73;;;;;;;3.47;70.97;102719.84;5103390;28;20028;-61
2021/04/24 03:02:09;;;;;;;29.80;11.18;;;;;;;3.36;71.49;102723.47;5100965;28;20035;-61
2021/04/24 03:04:35;;;;;;;27.55;10.35;;;;;;;3.25;72.10;102718.47;5102154;28;20020;-61
2021/04/24 03:07:00;;;;;;;30.05;11.43;;;;;;;3.17;72.55;102724.03;5104159;28;20351;-61
2021/04/24 03:09:25;;;;;;;31.23;11.82;;;;;;;3.17;72.79;102705.72;5100579;28;20035;-61
2021/04/24 03:11:51;;;;;;;30.90;11.95;;;;;;;3.17;72.92;102721.41;5104086;28;20023;-61
2021/04/24 03:14:16;;;;;;;30.40;12.27;;;;;;;3.19;72.82;102706.72;5102062;28;20069;-61
2021/04/24 03:16:41;;;;;;;29.40;11.43;;;;;;;3.20;72.59;102708.53;5102966;28;20027;-61
2021/04/24 03:19:08;;;;;;;27.58;11.00;;;;;;;3.20;72.61;102711.13;5103012;28;20035;-61
2021/04/24 03:21:34;;;;;;;30.58;11.40;;;;;;;3.24;72.54;102707.94;5101880;28;20075;-61
2021/04/24 03:23:59;;;;;;;29.27;11.00;;;;;;;3.23;72.99;102712.25;5104073;28;20056;-62
2021/04/24 03:26:25;;;;;;;27.92;10.70;;;;;;;3.21;72.85;102721.69;5100953;28;20485;-61
2021/04/24 03:28:51;;;;;;;27.42;10.82;;;;;;;3.08;72.69;102724.31;5106204;28;20054;-62
2021/04/24 03:31:17;;;;;;;31.60;11.07;;;;;;;3.00;72.95;102726.44;5105302;27;20523;-63
2021/04/24 03:33:43;;;;;;;30.85;11.15;;;;;;;2.87;73.78;102719.50;5106761;28;20020;-61
2021/04/24 03:36:08;;;;;;;30.58;11.30;;;;;;;2.76;74.16;102713.56;5106653;28;20019;-62
2021/04/24 03:38:35;;;;;;;28.17;11.32;;;;;;;2.74;74.25;102723.03;5105258;28;20031;-62
2021/04/24 03:41:00;;;;;;;28.17;11.45;;;;;;;2.76;74.56;102723.13;5107832;28;20028;-62
2021/04/24 03:43:26;;;;;;;30.17;11.82;;;;;;;2.71;74.88;102720.22;5104378;28;20466;-62
2021/04/24 03:45:51;;;;;;;30.50;11.98;;;;;;;2.72;74.72;102726.31;5107342;28;20070;-62
2021/04/24 03:48:17;;;;;;;29.65;11.73;;;;;;;2.76;74.48;102724.00;5105481;28;20028;-62
2021/04/24 03:50:42;;;;;;;32.35;13.77;;;;;;;2.82;74.31;102709.56;5106164;28;20047;-62
2021/04/24 03:53:08;;;;;;;30.70;12.25;;;;;;;2.86;74.16;102712.47;5106149;28;20036;-62
2021/04/24 03:55:33;;;;;;;30.58;11.85;;;;;;;2.93;73.97;102713.78;5105031;28;20027;-62
2021/04/24 03:58:00;;;;;;;29.95;11.95;;;;;;;2.84;73.90;102711.47;5107436;28;20100;-62
2021/04/24 04:00:28;;;;;;;28.27;11.02;;;;;;;2.83;74.07;102712.28;5104131;28;20483;-62
2021/04/24 04:03:00;;;;;;;31.27;12.05;;;;;;;2.83;73.96;102714.00;5099054;28;20052;-62
2021/04/24 04:05:30;;;;;;;30.35;12.32;;;;;;;2.69;73.97;102713.06;5100068;28;20020;-62
2021/04/24 04:07:57;;;;;;;28.60;11.35;;;;;;;2.61;74.60;102715.19;5099896;28;20024;-62
2021/04/24 04:10:24;;;;;;;29.23;10.93;;;;;;;2.53;75.09;102722.47;5106947;28;20032;-62
2021/04/24 04:12:49;;;;;;;30.70;10.98;;;;;;;2.54;74.50;102712.97;5104525;28;20028;-63
2021/04/24 04:15:17;;;;;;;31.00;11.18;;;;;;;2.50;74.75;102731.81;5105735;28;20024;-62
2021/04/24 04:18:01;;;;;;;28.70;10.90;;;;;;;2.50;74.03;102727.50;5105161;28;20055;-62
2021/04/24 04:20:27;;;;;;;30.38;11.07;;;;;;;2.40;74.60;102726.00;5099990;28;20031;-62
2021/04/24 04:22:53;;;;;;;27.00;10.65;;;;;;;2.36;74.24;102725.66;5107200;28;20103;-62
2021/04/24 04:25:19;;;;;;;27.83;10.95;;;;;;;2.37;74.67;102736.19;5104488;28;20036;-62
2021/04/24 04:27:45;;;;;;;30.10;11.60;;;;;;;2.33;74.76;102734.22;5105724;28;20036;-63
2021/04/24 04:30:15;;;;;;;28.88;11.35;;;;;;;2.36;74.41;102737.03;5103861;28;20397;-62
2021/04/24 04:32:40;;;;;;;30.00;11.95;;;;;;;2.30;75.02;102734.00;5105141;28;20020;-62
2021/04/24 04:35:07;;;;;;;29.48;11.38;;;;;;;2.28;75.36;102726.84;5105940;28;20466;-62
2021/04/24 04:37:33;;;;;;;30.02;12.43;;;;;;;2.32;75.16;102737.59;5104034;28;20016;-62
2021/04/24 04:39:58;;;;;;;29.88;12.13;;;;;;;2.29;75.13;102739.09;5106517;28;20019;-62
2021/04/24 04:42:24;;;;;;;29.05;12.27;;;;;;;2.26;75.29;102742.41;5099059;28;20459;-62
2021/04/24 04:44:50;;;;;;;29.02;11.82;;;;;;;2.30;75.41;102743.53;5105996;28;20481;-63
2021/04/24 04:47:15;;;;;;;31.67;13.50;;;;;;;2.29;75.69;102737.41;5104202;28;20039;-62
2021/04/24 04:49:41;;;;;;;30.98;12.00;;;;;;;2.37;75.63;102743.13;5104751;28;20096;-62
2021/04/24 04:52:06;;;;;;;29.77;12.55;;;;;;;2.27;75.88;102736.38;5105342;28;20028;-62
2021/04/24 04:54:31;;;;;;;30.08;12.25;;;;;;;2.17;75.99;102732.25;5103339;28;20453;-62
2021/04/24 04:56:57;;;;;;;29.15;11.70;;;;;;;2.22;75.81;102732.56;5106580;28;20027;-62
2021/04/24 04:59:22;;;;;;;28.52;11.82;;;;;;;2.14;75.80;102738.94;5102875;28;20043;-63
2021/04/24 05:01:47;;;;;;;30.73;12.60;;;;;;;2.18;76.08;102733.16;5105113;28;20065;-63
2021/04/24 05:04:13;;;;;;;31.65;12.57;;;;;;;2.29;76.08;102736.47;5104482;28;20484;-62
2021/04/24 05:06:38;;;;;;;31.95;12.80;;;;;;;2.34;76.43;102736.00;5104063;28;20143;-62
2021/04/24 05:09:04;;;;;;;30.17;12.48;;;;;;;2.40;76.15;102736.44;5105479;28;20466;-63
2021/04/24 05:11:29;;;;;;;28.83;12.30;;;;;;;2.44;75.67;102732.31;5102978;28;20047;-63
2021/04/24 05:13:54;;;;;;;35.95;13.95;;;;;;;2.49;75.46;102733.53;5106037;28;20058;-62
2021/04/24 05:16:20;;;;;;;29.88;12.68;;;;;;;2.63;75.74;102736.16;5103240;28;20101;-63
2021/04/24 05:18:45;;;;;;;31.50;12.70;;;;;;;2.67;75.92;102736.47;5104906;28;20093;-62
2021/04/24 05:21:11;;;;;;;36.08;14.20;;;;;;;2.74;75.82;102743.03;5104353;28;20030;-63
2021/04/24 05:23:36;;;;;;;34.53;14.57;;;;;;;2.80;75.62;102743.41;5103431;28;20099;-62
2021/04/24 05:26:01;;;;;;;33.88;13.60;;;;;;;2.85;76.10;102747.22;5105509;28;20016;-62
2021/04/24 05:28:27;;;;;;;34.53;14.15;;;;;;;2.96;76.61;102740.13;5102214;28;20374;-62
2021/04/24 05:30:52;;;;;;;30.67;12.48;;;;;;;3.09;76.69;102749.66;5105752;28;20107;-63
2021/04/24 05:33:17;;;;;;;30.63;12.90;;;;;;;3.24;76.61;102747.13;5103347;28;20041;-63
2021/04/24 05:35:43;;;;;;;33.28;13.07;;;;;;;3.29;76.58;102745.69;5104176;28;20032;-62
2021/04/24 05:38:08;;;;;;;34.38;13.52;;;;;;;3.47;76.50;102749.50;5104584;28;20074;-62
2021/04/24 05:40:33;;;;;;;36.90;14.20;;;;;;;3.59;76.54;102754.59;5102412;28;20365;-63
2021/04/24 05:42:59;;;;;;;32.80;14.15;;;;;;;3.74;76.77;102751.16;5105557;28;20055;-63
2021/04/24 05:45:25;;;;;;;34.67;13.38;;;;;;;3.86;76.22;102757.16;5097933;28;20020;-63
2021/04/24 05:47:52;;;;;;;33.28;14.10;;;;;;;4.01;76.19;102752.88;5104715;28;20382;-62
2021/04/24 05:50:23;;;;;;;33.50;14.55;;;;;;;4.12;74.92;102760.47;5102509;28;20020;-62
2021/04/24 05:52:48;;;;;;;33.47;14.15;;;;;;;4.19;75.73;102750.50;5104742;28;20395;-62
2021/04/24 05:55:15;;;;;;;36.35;14.77;;;;;;;4.29;76.28;102753.66;5103422;28;20336;-62
2021/04/24 05:57:41;;;;;;;34.30;14.32;;;;;;;4.34;75.71;102755.75;5103224;28;20047;-62
2021/04/24 06:00:19;;;;;;;34.53;15.02;;;;;;;4.47;74.85;102759.06;5104223;28;20031;-62
2021/04/24 06:02:45;;;;;;;34.83;14.43;;;;;;;4.50;75.78;102760.19;5103746;28;20043;-62
2021/04/24 06:05:11;;;;;;;34.13;14.32;;;;;;;4.57;75.51;102761.44;5103818;28;20393;-62
2021/04/24 06:07:38;;;;;;;34.15;14.20;;;;;;;4.62;75.13;102767.88;5102847;28;20016;-62
2021/04/24 06:10:09;;;;;;;34.55;14.10;;;;;;;4.63;74.70;102771.38;5104449;28;20024;-62
2021/04/24 06:12:34;;;;;;;33.42;14.25;;;;;;;4.73;74.76;102771.09;5101961;28;20074;-62
2021/04/24 06:15:00;;;;;;;35.88;14.13;;;;;;;4.81;73.74;102766.34;5104999;28;20474;-62
2021/04/24 06:17:25;;;;;;;33.67;14.18;;;;;;;4.89;74.83;102765.03;5097408;28;20032;-62
2021/04/24 06:19:51;;;;;;;37.20;15.20;;;;;;;4.96;74.50;102772.44;5104384;28;20024;-62
2021/04/24 06:22:17;;;;;;;33.20;14.57;;;;;;;5.10;73.63;102770.66;5102730;28;20058;-62
2021/04/24 06:24:42;;;;;;;34.08;14.55;;;;;;;5.23;74.30;102767.91;5103082;28;20020;-61
2021/04/24 06:27:07;;;;;;;34.65;14.88;;;;;;;5.26;73.74;102761.00;5103604;28;20036;-62
2021/04/24 06:29:33;;;;;;;34.30;14.27;;;;;;;5.31;73.74;102762.19;5101862;28;20040;-62
2021/04/24 06:31:58;;;;;;;33.72;14.02;;;;;;;5.40;72.89;102767.94;5105135;28;20153;-62
2021/04/24 06:34:24;;;;;;;35.13;15.05;;;;;;;5.48;72.71;102758.78;5101568;28;20039;-62
2021/04/24 06:36:50;;;;;;;34.30;14.85;;;;;;;5.42;73.45;102766.31;5104258;28;20576;-62
2021/04/24 06:39:15;;;;;;;34.03;13.88;;;;;;;5.46;73.65;102760.44;5102470;28;20161;-62
2021/04/24 06:41:40;;;;;;;34.17;14.95;;;;;;;5.54;73.80;102773.97;5102470;28;20076;-62
2021/04/24 06:44:06;;;;;;;33.72;14.65;;;;;;;5.65;72.96;102767.59;5103948;28;20027;-62
2021/04/24 06:46:31;;;;;;;34.42;15.77;;;;;;;5.73;73.22;102775.88;5101017;28;20063;-62
2021/04/24 06:48:56;;;;;;;34.90;14.80;;;;;;;5.81;73.19;102752.69;5104627;28;20168;-62
2021/04/24 06:51:22;;;;;;;35.63;14.63;;;;;;;5.88;72.67;102763.63;5101802;28;20017;-62
2021/04/24 06:53:47;;;;;;;32.75;14.20;;;;;;;5.90;71.67;102754.09;5103305;28;20115;-62
2021/04/24 06:56:12;;;;;;;34.53;14.60;;;;;;;6.03;72.47;102753.06;5103189;28;20039;-61
2021/04/24 06:58:38;;;;;;;32.17;13.43;;;;;;;6.09;71.17;102755.13;5100705;28;20040;-62
2021/04/24 07:01:03;;;;;;;31.98;12.82;;;;;;;6.13;70.39;102766.66;5103822;28;20031;-62
2021/04/24 07:03:29;;;;;;;33.17;13.73;;;;;;;6.17;70.46;102760.75;5102900;28;20486;-62
2021/04/24 07:05:55;;;;;;;30.75;13.07;;;;;;;6.22;70.61;102765.44;5108432;28;20024;-61
2021/04/24 07:08:20;;;;;;;31.90;12.57;;;;;;;6.36;69.63;102760.91;5105506;28;20039;-62
2021/04/24 07:10:46;;;;;;;30.45;12.48;;;;;;;6.51;69.92;102760.81;5107235;28;20112;-62
2021/04/24 07:13:11;;;;;;;30.65;12.73;;;;;;;6.52;69.54;102757.34;5106865;28;20111;-62
2021/04/24 07:15:37;;;;;;;31.90;12.65;;;;;;;6.53;69.33;102761.78;5105678;28;20024;-62
2021/04/24 07:18:03;;;;;;;29.70;12.18;;;;;;;6.54;69.31;102766.22;5108002;28;20028;-62
2021/04/24 07:20:28;;;;;;;30.48;11.95;;;;;;;6.61;68.47;102763.09;5104926;28;20080;-62
2021/04/24 07:22:54;;;;;;;32.35;12.85;;;;;;;6.83;69.04;102758.91;5108071;28;20111;-62
2021/04/24 07:25:19;;;;;;;31.33;12.35;;;;;;;7.03;67.02;102759.88;5105607;28;20474;-62
2021/04/24 07:27:45;;;;;;;29.63;12.40;;;;;;;7.19;66.68;102760.66;5106525;28;20052;-62
2021/04/24 07:30:11;;;;;;;29.48;12.50;;;;;;;7.33;67.63;102763.13;5106820;28;20031;-62
2021/04/24 07:32:37;;;;;;;31.55;11.48;;;;;;;7.42;65.79;102760.03;5105596;28;20039;-62
2021/04/24 07:35:05;;;;;;;28.35;11.70;;;;;;;7.61;65.67;102758.28;5108043;28;20019;-62
2021/04/24 07:37:30;;;;;;;29.88;11.57;;;;;;;7.78;64.96;102759.97;5104591;28;20035;-62
2021/04/24 07:39:56;;;;;;;28.70;10.05;;;;;;;7.88;63.42;102761.28;5100185;28;20020;-61
2021/04/24 07:42:22;;;;;;;26.00;9.60;;;;;;;7.85;62.66;102758.53;5107076;28;20501;-61
2021/04/24 07:44:47;;;;;;;27.30;9.88;;;;;;;7.79;61.86;102748.59;5105545;28;20039;-62
2021/04/24 07:47:12;;;;;;;27.52;9.93;;;;;;;7.78;62.80;102751.19;5105660;28;20076;-62
2021/04/24 07:49:39;;;;;;;25.67;9.15;;;;;;;7.93;62.29;102738.69;5106389;28;20031;-62
2021/04/24 07:52:08;;;;;;;25.48;9.25;;;;;;;8.00;62.54;102743.41;5104680;28;20543;-61
2021/04/24 07:54:34;;;;;;;25.50;8.75;;;;;;;8.05;60.72;102745.34;5107339;28;20103;-62
2021/04/24 07:57:00;;;;;;;25.98;8.38;;;;;;;8.18;60.42;102747.69;5104028;28;20016;-62
2021/04/24 07:59:26;;;;;;;24.55;8.30;;;;;;;8.27;59.08;102737.59;5107419;28;20466;-62
2021/04/24 08:01:51;;;;;;;25.55;8.93;;;;;;;8.37;60.26;102745.06;5104226;28;20024;-62
2021/04/24 08:04:17;;;;;;;26.25;9.20;;;;;;;8.59;60.05;102746.03;5105953;28;20028;-62
2021/04/24 08:06:43;;;;;;;27.80;9.40;;;;;;;8.78;60.09;102738.88;5106149;28;20026;-62
2021/04/24 08:09:08;;;;;;;26.42;9.35;;;;;;;9.14;58.51;102733.31;5104659;28;20508;-61
2021/04/24 08:11:34;;;;;;;24.75;9.00;;;;;;;9.77;55.70;102728.75;5107178;28;20055;-62
2021/04/24 08:13:59;;;;;;;24.73;8.77;;;;;;;10.39;54.07;102736.28;5103655;28;20044;-62
2021/04/24 08:16:25;;;;;;;23.02;8.18;;;;;;;10.83;52.05;102728.06;5106992;28;20476;-62
2021/04/24 08:18:50;;;;;;;24.50;8.50;;;;;;;11.08;52.05;102724.50;5104713;28;20028;-62
2021/04/24 08:21:16;;;;;;;24.73;8.38;;;;;;;11.64;50.26;102740.34;5105668;28;20020;-62
2021/04/24 08:23:42;;;;;;;23.65;8.10;;;;;;;11.90;49.15;102728.69;5105482;28;20106;-62
2021/04/24 08:26:07;;;;;;;23.65;7.80;;;;;;;12.23;48.31;102742.03;5104467;28;20103;-63
2021/04/24 08:28:33;;;;;;;22.80;7.60;;;;;;;12.68;47.07;102735.28;5106845;28;20023;-63
2021/04/24 08:30:58;;;;;;;26.15;7.85;;;;;;;12.58;46.06;102731.47;5103423;28;20020;-61
2021/04/24 08:33:24;;;;;;;24.75;7.80;;;;;;;12.72;45.41;102731.84;5106535;28;20031;-61
2021/04/24 08:35:49;;;;;;;21.60;6.80;;;;;;;13.10;44.03;102731.88;5104219;28;20455;-61
2021/04/24 08:38:14;;;;;;;23.85;7.15;;;;;;;13.69;43.95;102742.13;5105227;28;20028;-61
2021/04/24 08:40:40;;;;;;;25.55;7.78;;;;;;;14.25;42.13;102741.47;5105944;28;20032;-62
2021/04/24 08:43:05;;;;;;;21.73;7.60;;;;;;;14.42;41.08;102739.13;5103758;28;20095;-62
2021/04/24 08:45:33;;;;;;;21.15;6.20;;;;;;;14.42;39.81;102751.53;5106956;28;20027;-62
2021/04/24 08:47:58;;;;;;;22.58;6.63;;;;;;;14.47;39.04;102739.19;5099316;28;20024;-62
2021/04/24 08:50:30;;;;;;;21.77;6.47;;;;;;;14.82;38.99;102739.88;5106198;28;20112;-62
2021/04/24 08:52:57;;;;;;;21.90;6.35;;;;;;;15.17;38.26;102738.63;5103090;28;20506;-62
2021/04/24 08:55:30;;;;;;;22.65;7.38;;;;;;;15.22;38.62;102742.28;5105991;28;20058;-62
2021/04/24 08:57:56;;;;;;;21.27;6.95;;;;;;;15.32;37.87;102730.00;5103141;28;20028;-62
2021/04/24 09:00:28;;;;;;;21.25;6.55;;;;;;;15.24;38.21;102729.84;5105291;28;20535;-62
2021/04/24 09:02:54;;;;;;;20.73;6.50;;;;;;;14.91;38.55;102720.50;5102826;28;20051;-62
2021/04/24 09:05:22;;;;;;;19.85;5.80;;;;;;;14.59;37.44;102736.78;5105301;28;20027;-62
2021/04/24 09:07:57;;;;;;;20.48;5.55;;;;;;;14.27;39.00;102733.50;5103955;28;20032;-62
2021/04/24 09:10:23;;;;;;;20.58;5.75;;;;;;;13.90;37.62;102712.41;5105586;28;20027;-62
2021/04/24 09:12:49;;;;;;;21.13;5.65;;;;;;;13.42;38.93;102716.72;5103901;28;20024;-62
2021/04/24 09:15:26;;;;;;;22.10;6.60;;;;;;;13.29;40.04;102727.91;5104571;28;20105;-62
2021/04/24 09:18:04;;;;;;;22.67;6.10;;;;;;;13.46;40.33;102712.38;5103381;28;20038;-62
2021/04/24 09:20:55;;;;;;;21.83;5.90;;;;;;;14.01;39.91;102711.72;5098627;28;20093;-62
2021/04/24 09:23:22;;;;;;;18.80;5.30;;;;;;;14.68;36.93;102713.88;5104416;28;20028;-62
2021/04/24 09:25:50;;;;;;;21.58;5.57;;;;;;;15.03;35.34;102716.19;5103035;28;20169;-62
2021/04/24 09:28:42;;;;;;;20.65;5.20;;;;;;;15.26;34.91;102716.56;5104207;28;20031;-62
2021/04/24 09:31:20;;;;;;;21.27;5.68;;;;;;;15.51;34.52;102723.16;5100529;28;20027;-62
2021/04/24 09:33:48;;;;;;;23.40;8.85;;;;;;;15.96;33.09;102686.38;5103752;28;20458;-62
2021/04/24 09:36:15;;;;;;;19.70;5.53;;;;;;;15.99;33.86;102708.66;5104061;28;20468;-62
2021/04/24 09:38:43;;;;;;;19.20;5.45;;;;;;;16.24;32.19;102711.59;5104252;28;20020;-62
2021/04/24 09:41:17;;;;;;;19.35;5.40;;;;;;;16.69;32.40;102707.56;5102919;28;20470;-62
2021/04/24 09:44:04;;;;;;;20.05;5.20;;;;;;;17.43;31.21;102705.44;5104447;28;20026;-62
2021/04/24 09:46:32;;;;;;;20.20;6.30;;;;;;;17.96;31.23;102711.03;5098210;28;20024;-61
2021/04/24 09:49:28;;;;;;;18.60;5.32;;;;;;;18.51;30.54;102706.66;5097586;28;20100;-61
2021/04/24 09:52:05;;;;;;;20.05;5.38;;;;;;;18.20;29.83;102704.84;5104467;28;20034;-62
2021/04/24 09:54:33;;;;;;;19.55;5.55;;;;;;;18.92;28.27;102706.69;5098190;28;20028;-62
2021/04/24 09:57:03;;;;;;;18.88;5.30;;;;;;;19.83;27.73;102703.78;5097737;28;20024;-62
2021/04/24 09:59:30;;;;;;;18.50;4.93;;;;;;;19.92;25.62;102696.56;5098144;28;20039;-63
2021/04/24 10:02:01;;;;;;;18.65;4.82;;;;;;;19.77;26.18;102698.38;5104721;28;20020;-63
2021/04/24 10:04:26;;;;;;;18.20;5.40;;;;;;;19.43;26.45;102693.16;5101880;28;20490;-62
2021/04/24 10:06:54;;;;;;;19.13;5.70;;;;;;;19.10;27.49;102695.03;5104706;28;20035;-62
2021/04/24 10:09:26;;;;;;;20.58;5.95;;;;;;;19.43;28.11;102693.16;5102614;28;20031;-62
2021/04/24 10:12:00;;;;;;;19.42;5.72;;;;;;;20.25;26.95;102683.84;5098411;28;20028;-62
2021/04/24 10:14:57;;;;;;;20.98;6.13;;;;;;;20.82;25.87;102678.88;5095758;28;20035;-62
2021/04/24 10:17:26;;;;;;;18.35;5.30;;;;;;;20.36;25.82;102673.91;5053123;28;20040;-62
2021/04/24 10:19:51;;;;;;;20.90;5.28;;;;;;;20.15;24.90;102678.53;5052676;28;20098;-62
2021/04/24 10:22:19;;;;;;;19.13;5.00;;;;;;;20.18;26.01;102667.78;5052480;28;20028;-62
2021/04/24 10:24:45;;;;;;;20.20;5.20;;;;;;;20.35;25.27;102672.13;5050165;28;20028;-63
2021/04/24 10:27:12;;;;;;;17.83;5.00;;;;;;;20.40;24.74;102667.59;5050341;28;20813;-62
2021/04/24 10:29:42;;;;;;;18.35;5.10;;;;;;;20.25;24.82;102662.34;5051896;28;20025;-63
2021/04/24 10:32:08;;;;;;;20.23;5.20;;;;;;;20.53;25.37;102663.91;5049223;28;20032;-62
2021/04/24 10:34:33;;;;;;;18.92;4.90;;;;;;;19.72;25.95;102656.38;5055358;28;20037;-62
2021/04/24 10:36:59;;;;;;;18.40;4.95;;;;;;;19.28;26.38;102661.94;5060990;28;20040;-62
2021/04/24 10:39:30;;;;;;;19.40;4.90;;;;;;;19.63;24.77;102663.59;5058727;28;20033;-62
2021/04/24 10:42:12;;;;;;;17.73;4.70;;;;;;;19.52;26.22;102660.94;5061204;28;20029;-62
2021/04/24 10:44:48;;;;;;;19.90;5.30;;;;;;;19.09;27.36;102654.84;5060895;28;20057;-63
2021/04/24 10:47:14;;;;;;;17.63;4.85;;;;;;;18.56;28.44;102656.69;5058964;28;20087;-62
2021/04/24 10:50:09;;;;;;;19.83;5.75;;;;;;;19.80;26.45;102654.59;5060817;28;20072;-62
2021/04/24 10:52:34;;;;;;;19.48;5.20;;;;;;;21.04;25.01;102651.78;5071494;28;20371;-62
2021/04/24 10:55:12;;;;;;;21.50;5.22;;;;;;;22.16;24.71;102648.56;5103428;28;20020;-62
2021/04/24 10:57:40;;;;;;;19.02;5.22;;;;;;;22.01;22.04;102644.31;5103257;28;20020;-62
2021/04/24 11:00:11;;;;;;;19.63;5.60;;;;;;;22.08;23.77;102648.69;5102523;28;20145;-63
2021/04/24 11:02:51;;;;;;;18.02;5.30;;;;;;;22.15;23.08;102638.69;5102979;28;20074;-63
2021/04/24 11:05:26;;;;;;;20.63;6.00;;;;;;;22.09;23.45;102642.38;5096772;28;20051;-63
2021/04/24 11:08:10;;;;;;;18.98;5.78;;;;;;;23.24;22.45;102641.28;5097711;28;20046;-63
2021/04/24 11:10:43;;;;;;;17.27;5.05;;;;;;;22.79;21.58;102639.44;5102112;28;20031;-64
2021/04/24 11:13:10;;;;;;;19.48;5.28;;;;;;;22.65;22.18;102630.72;5103212;28;20474;-64
2021/04/24 11:15:38;;;;;;;18.75;5.20;;;;;;;22.81;21.90;102638.47;5102609;28;20032;-64
2021/04/24 11:18:04;;;;;;;20.13;5.18;;;;;;;23.69;20.10;102638.50;5102408;28;20032;-64